ACA2208 CYHZ-KLGA
Flight info
| Callsign | ACA2208 |
|---|---|
| Flight time | 1h 51m |
| Altitude | 36000 |
| Route | SENVI DCT VIGMA DCT ALLEX Q822 ENE DCT ALB NOBBI1 |
| Aircraft | A320/M-SDE3FGHIRWY/LB1 |
Departure
| Time | 2026-05-05 00:38 |
|---|---|
| Airport | Halifax / Stanfield International Airport (CYHZ) |
Arrival
| Time | 2026-05-05 02:29 |
|---|---|
| Airport | LaGuardia Airport (KLGA) |
| Time | Latitude | Longitude | Altitude | Speed | Heading |
|---|---|---|---|---|---|
| 2026-05-05 00:03 | 44.88679 | -63.51393 | 452 ft | 0 kts | 260° |
| 2026-05-05 00:29 | 44.88681 | -63.51374 | 448 ft | 4 kts | 260° |
| 2026-05-05 00:29 | 44.88686 | -63.51338 | 450 ft | 4 kts | 259° |
| 2026-05-05 00:30 | 44.88693 | -63.51300 | 450 ft | 4 kts | 243° |
| 2026-05-05 00:30 | 44.88708 | -63.51273 | 450 ft | 4 kts | 202° |
| 2026-05-05 00:30 | 44.88721 | -63.51269 | 449 ft | 0 kts | 168° |
| 2026-05-05 00:33 | 44.88692 | -63.51232 | 450 ft | 8 kts | 105° |
| 2026-05-05 00:33 | 44.88698 | -63.51157 | 452 ft | 7 kts | 81° |
| 2026-05-05 00:33 | 44.88713 | -63.51044 | 452 ft | 18 kts | 78° |
| 2026-05-05 00:34 | 44.88731 | -63.50937 | 452 ft | 8 kts | 76° |
| 2026-05-05 00:34 | 44.88777 | -63.50872 | 452 ft | 18 kts | 36° |
| 2026-05-05 00:34 | 44.88800 | -63.50849 | 451 ft | 0 kts | 34° |
| 2026-05-05 00:35 | 44.88862 | -63.50789 | 450 ft | 21 kts | 34° |
| 2026-05-05 00:35 | 44.88966 | -63.50685 | 451 ft | 15 kts | 37° |
| 2026-05-05 00:36 | 44.89006 | -63.50597 | 451 ft | 6 kts | 101° |
| 2026-05-05 00:36 | 44.89005 | -63.50594 | 451 ft | 0 kts | 105° |
| 2026-05-05 00:36 | 44.89005 | -63.50592 | 451 ft | 2 kts | 105° |
| 2026-05-05 00:36 | 44.88952 | -63.50481 | 451 ft | 16 kts | 126° |
| 2026-05-05 00:37 | 44.88875 | -63.50449 | 451 ft | 12 kts | 201° |
| 2026-05-05 00:37 | 44.88798 | -63.50521 | 451 ft | 16 kts | 215° |
| 2026-05-05 00:37 | 44.88555 | -63.50763 | 451 ft | 83 kts | 215° |
| 2026-05-05 00:37 | 44.87864 | -63.51445 | 470 ft | 153 kts | 214° |
| 2026-05-05 00:38 | 44.86957 | -63.52366 | 1041 ft | 168 kts | 219° |
| 2026-05-05 00:38 | 44.85977 | -63.53252 | 2031 ft | 169 kts | 217° |
| 2026-05-05 00:38 | 44.84878 | -63.54019 | 2677 ft | 181 kts | 214° |
| 2026-05-05 00:38 | 44.83706 | -63.54747 | 3186 ft | 186 kts | 214° |
| 2026-05-05 00:39 | 44.82504 | -63.55443 | 3771 ft | 187 kts | 214° |
| 2026-05-05 00:39 | 44.81313 | -63.56167 | 4368 ft | 185 kts | 220° |
| 2026-05-05 00:39 | 44.80412 | -63.57451 | 4682 ft | 191 kts | 247° |
| 2026-05-05 00:39 | 44.79846 | -63.59188 | 4845 ft | 199 kts | 250° |
| 2026-05-05 00:40 | 44.79275 | -63.60986 | 5435 ft | 202 kts | 250° |
| 2026-05-05 00:40 | 44.78679 | -63.62849 | 5924 ft | 216 kts | 250° |
| 2026-05-05 00:40 | 44.78054 | -63.64810 | 6380 ft | 222 kts | 250° |
| 2026-05-05 00:40 | 44.77420 | -63.66800 | 6826 ft | 225 kts | 250° |
| 2026-05-05 00:41 | 44.76778 | -63.68821 | 7275 ft | 227 kts | 250° |
| 2026-05-05 00:41 | 44.76131 | -63.70861 | 7772 ft | 229 kts | 250° |
| 2026-05-05 00:41 | 44.75475 | -63.72926 | 8243 ft | 232 kts | 250° |
| 2026-05-05 00:41 | 44.74806 | -63.75006 | 8714 ft | 234 kts | 250° |
| 2026-05-05 00:42 | 44.74129 | -63.77102 | 9184 ft | 236 kts | 250° |
| 2026-05-05 00:42 | 44.73444 | -63.79213 | 9667 ft | 238 kts | 250° |
| 2026-05-05 00:42 | 44.72752 | -63.81355 | 10112 ft | 245 kts | 250° |
| 2026-05-05 00:42 | 44.72034 | -63.83589 | 10569 ft | 256 kts | 250° |
| 2026-05-05 00:43 | 44.71284 | -63.85936 | 10794 ft | 274 kts | 250° |
| 2026-05-05 00:43 | 44.70469 | -63.88481 | 10817 ft | 293 kts | 250° |
| 2026-05-05 00:43 | 44.69626 | -63.91120 | 10818 ft | 298 kts | 250° |
| 2026-05-05 00:43 | 44.68781 | -63.93781 | 10819 ft | 299 kts | 250° |
| 2026-05-05 00:44 | 44.67935 | -63.96444 | 10819 ft | 299 kts | 250° |
| 2026-05-05 00:44 | 44.67089 | -63.99108 | 10822 ft | 299 kts | 250° |
| 2026-05-05 00:44 | 44.66239 | -64.01772 | 10820 ft | 298 kts | 250° |
| 2026-05-05 00:44 | 44.65390 | -64.04432 | 10819 ft | 299 kts | 250° |
| 2026-05-05 00:45 | 44.64542 | -64.07094 | 10820 ft | 299 kts | 250° |
| 2026-05-05 00:45 | 44.63690 | -64.09758 | 10818 ft | 299 kts | 250° |
| 2026-05-05 00:45 | 44.62841 | -64.12421 | 10818 ft | 299 kts | 250° |
| 2026-05-05 00:45 | 44.61820 | -64.14972 | 10818 ft | 306 kts | 236° |
| 2026-05-05 00:46 | 44.60113 | -64.16845 | 10816 ft | 323 kts | 213° |
| 2026-05-05 00:46 | 44.57890 | -64.17659 | 10798 ft | 343 kts | 192° |
| 2026-05-05 00:46 | 44.55466 | -64.17219 | 10816 ft | 363 kts | 170° |
| 2026-05-05 00:46 | 44.53092 | -64.15882 | 10818 ft | 369 kts | 164° |
| 2026-05-05 00:47 | 44.50741 | -64.14437 | 10820 ft | 370 kts | 163° |
| 2026-05-05 00:47 | 44.48497 | -64.12593 | 10806 ft | 383 kts | 146° |
| 2026-05-05 00:47 | 44.46751 | -64.09726 | 10821 ft | 395 kts | 124° |
| 2026-05-05 00:47 | 44.45761 | -64.06176 | 10827 ft | 401 kts | 102° |
| 2026-05-05 00:48 | 44.45437 | -64.02241 | 10829 ft | 402 kts | 94° |
| 2026-05-05 00:48 | 44.45241 | -63.98389 | 10824 ft | 402 kts | 94° |
| 2026-05-05 00:48 | 44.45070 | -63.94445 | 10819 ft | 401 kts | 94° |
| 2026-05-05 00:48 | 44.44908 | -63.90550 | 10842 ft | 401 kts | 94° |
| 2026-05-05 00:49 | 44.44745 | -63.86649 | 10843 ft | 401 kts | 94° |
| 2026-05-05 00:49 | 44.44582 | -63.82751 | 10851 ft | 401 kts | 94° |
| 2026-05-05 00:49 | 44.44419 | -63.78854 | 10845 ft | 401 kts | 94° |
| 2026-05-05 00:49 | 44.44256 | -63.74960 | 10850 ft | 401 kts | 94° |
| 2026-05-05 00:50 | 44.44095 | -63.71063 | 10844 ft | 401 kts | 94° |
| 2026-05-05 00:50 | 44.43934 | -63.67164 | 10842 ft | 401 kts | 94° |
| 2026-05-05 00:50 | 44.43773 | -63.63270 | 10845 ft | 401 kts | 94° |
| 2026-05-05 00:50 | 44.43613 | -63.59369 | 10829 ft | 401 kts | 94° |
| 2026-05-05 00:51 | 44.43474 | -63.55468 | 10861 ft | 402 kts | 94° |
| 2026-05-05 00:51 | 44.43342 | -63.51572 | 10849 ft | 401 kts | 94° |
| 2026-05-05 00:51 | 44.43212 | -63.47669 | 10850 ft | 401 kts | 94° |
| 2026-05-05 00:51 | 44.43084 | -63.43765 | 10848 ft | 402 kts | 93° |
| 2026-05-05 00:52 | 44.43330 | -63.39885 | 10847 ft | 401 kts | 73° |
| 2026-05-05 00:52 | 44.44439 | -63.36360 | 10855 ft | 394 kts | 51° |
| 2026-05-05 00:52 | 44.46221 | -63.33507 | 10851 ft | 387 kts | 38° |
| 2026-05-05 00:52 | 44.48366 | -63.31375 | 10856 ft | 372 kts | 17° |
| 2026-05-05 00:53 | 44.50785 | -63.30460 | 10859 ft | 352 kts | 355° |
| 2026-05-05 00:53 | 44.53173 | -63.30630 | 10857 ft | 342 kts | 345° |
| 2026-05-05 00:53 | 44.55538 | -63.31024 | 10855 ft | 342 kts | 344° |
| 2026-05-05 00:53 | 44.57894 | -63.31430 | 10852 ft | 342 kts | 344° |
| 2026-05-05 00:54 | 44.60255 | -63.31845 | 10856 ft | 340 kts | 344° |
| 2026-05-05 00:54 | 44.62591 | -63.32296 | 10848 ft | 336 kts | 339° |
| 2026-05-05 00:54 | 44.64724 | -63.33416 | 10850 ft | 320 kts | 321° |
| 2026-05-05 00:54 | 44.66402 | -63.35339 | 10847 ft | 307 kts | 304° |
| 2026-05-05 00:55 | 44.67517 | -63.37786 | 10848 ft | 298 kts | 289° |
| 2026-05-05 00:55 | 44.68045 | -63.40571 | 10895 ft | 297 kts | 274° |
| 2026-05-05 00:55 | 44.68015 | -63.43477 | 11639 ft | 299 kts | 268° |
| 2026-05-05 00:55 | 44.67939 | -63.46441 | 12468 ft | 300 kts | 268° |
| 2026-05-05 00:56 | 44.67879 | -63.49388 | 13252 ft | 303 kts | 269° |
| 2026-05-05 00:56 | 44.67824 | -63.52355 | 13964 ft | 305 kts | 269° |
| 2026-05-05 00:56 | 44.67766 | -63.55340 | 14636 ft | 307 kts | 269° |
| 2026-05-05 00:56 | 44.67704 | -63.58312 | 15318 ft | 309 kts | 268° |
| 2026-05-05 00:57 | 44.67640 | -63.61331 | 16006 ft | 310 kts | 268° |
| 2026-05-05 00:57 | 44.67570 | -63.64367 | 16681 ft | 312 kts | 268° |
| 2026-05-05 00:57 | 44.67496 | -63.67425 | 17353 ft | 314 kts | 268° |
| 2026-05-05 00:57 | 44.67420 | -63.70497 | 17971 ft | 316 kts | 268° |
| 2026-05-05 00:58 | 44.67345 | -63.73599 | 18525 ft | 320 kts | 269° |
| 2026-05-05 00:58 | 44.67270 | -63.76735 | 19076 ft | 322 kts | 269° |
| 2026-05-05 00:58 | 44.67192 | -63.79890 | 19643 ft | 324 kts | 269° |
| 2026-05-05 00:58 | 44.67113 | -63.83072 | 20174 ft | 328 kts | 269° |
| 2026-05-05 00:59 | 44.67032 | -63.86284 | 20722 ft | 330 kts | 270° |
| 2026-05-05 00:59 | 44.66948 | -63.89489 | 21254 ft | 332 kts | 270° |
| 2026-05-05 00:59 | 44.66861 | -63.92769 | 21798 ft | 335 kts | 270° |
| 2026-05-05 00:59 | 44.66774 | -63.96048 | 22298 ft | 337 kts | 270° |
| 2026-05-05 01:00 | 44.66564 | -63.99342 | 22793 ft | 342 kts | 263° |
| 2026-05-05 01:00 | 44.65898 | -64.02572 | 23285 ft | 350 kts | 253° |
| 2026-05-05 01:00 | 44.64936 | -64.05731 | 23695 ft | 353 kts | 253° |
| 2026-05-05 01:00 | 44.63965 | -64.08915 | 24058 ft | 356 kts | 253° |
| 2026-05-05 01:01 | 44.62993 | -64.12118 | 24421 ft | 358 kts | 253° |
| 2026-05-05 01:01 | 44.62014 | -64.15349 | 24767 ft | 361 kts | 253° |
| 2026-05-05 01:01 | 44.61030 | -64.18598 | 25118 ft | 364 kts | 253° |
| 2026-05-05 01:01 | 44.60036 | -64.21875 | 25447 ft | 366 kts | 253° |
| 2026-05-05 01:02 | 44.59035 | -64.25174 | 25721 ft | 370 kts | 253° |
| 2026-05-05 01:02 | 44.58018 | -64.28511 | 26007 ft | 374 kts | 253° |
| 2026-05-05 01:02 | 44.56992 | -64.31873 | 26314 ft | 377 kts | 254° |
| 2026-05-05 01:02 | 44.55955 | -64.35264 | 26608 ft | 380 kts | 254° |
| 2026-05-05 01:03 | 44.54907 | -64.38680 | 26909 ft | 382 kts | 254° |
| 2026-05-05 01:03 | 44.53852 | -64.42115 | 27212 ft | 385 kts | 254° |
| 2026-05-05 01:03 | 44.52793 | -64.45569 | 27513 ft | 387 kts | 254° |
| 2026-05-05 01:03 | 44.51725 | -64.49043 | 27808 ft | 389 kts | 254° |
| 2026-05-05 01:04 | 44.50648 | -64.52537 | 28097 ft | 392 kts | 255° |
| 2026-05-05 01:04 | 44.48840 | -64.58384 | 28541 ft | 395 kts | 255° |
| 2026-05-05 01:04 | 44.47741 | -64.61931 | 28765 ft | 398 kts | 255° |
| 2026-05-05 01:05 | 44.46639 | -64.65492 | 28960 ft | 401 kts | 255° |
| 2026-05-05 01:05 | 44.45524 | -64.69088 | 29180 ft | 404 kts | 255° |
| 2026-05-05 01:05 | 44.44404 | -64.72698 | 29416 ft | 406 kts | 255° |
| 2026-05-05 01:05 | 44.43274 | -64.76327 | 29695 ft | 406 kts | 255° |
| 2026-05-05 01:06 | 44.42146 | -64.79944 | 30027 ft | 406 kts | 255° |
| 2026-05-05 01:06 | 44.41014 | -64.83561 | 30312 ft | 405 kts | 255° |
| 2026-05-05 01:06 | 44.39887 | -64.87163 | 30600 ft | 405 kts | 254° |
| 2026-05-05 01:06 | 44.38760 | -64.90768 | 30886 ft | 404 kts | 254° |
| 2026-05-05 01:07 | 44.37634 | -64.94364 | 31156 ft | 404 kts | 254° |
| 2026-05-05 01:07 | 44.36506 | -64.97966 | 31430 ft | 404 kts | 253° |
| 2026-05-05 01:07 | 44.35379 | -65.01566 | 31639 ft | 405 kts | 253° |
| 2026-05-05 01:07 | 44.34247 | -65.05177 | 31877 ft | 406 kts | 252° |
| 2026-05-05 01:08 | 44.33113 | -65.08783 | 32159 ft | 406 kts | 252° |
| 2026-05-05 01:08 | 44.31976 | -65.12387 | 32449 ft | 405 kts | 252° |
| 2026-05-05 01:08 | 44.30839 | -65.15982 | 32753 ft | 404 kts | 251° |
| 2026-05-05 01:08 | 44.29701 | -65.19569 | 33051 ft | 404 kts | 251° |
| 2026-05-05 01:09 | 44.28566 | -65.23148 | 33345 ft | 403 kts | 250° |
| 2026-05-05 01:09 | 44.27431 | -65.26716 | 33652 ft | 402 kts | 250° |
| 2026-05-05 01:09 | 44.26293 | -65.30284 | 33939 ft | 402 kts | 250° |
| 2026-05-05 01:09 | 44.25163 | -65.33844 | 34170 ft | 401 kts | 250° |
| 2026-05-05 01:10 | 44.24036 | -65.37405 | 34382 ft | 402 kts | 250° |
| 2026-05-05 01:10 | 44.22902 | -65.40973 | 34550 ft | 403 kts | 250° |
| 2026-05-05 01:10 | 44.21763 | -65.44547 | 34728 ft | 404 kts | 250° |
| 2026-05-05 01:10 | 44.20618 | -65.48131 | 34944 ft | 405 kts | 250° |
| 2026-05-05 01:11 | 44.19469 | -65.51717 | 35090 ft | 406 kts | 250° |
| 2026-05-05 01:11 | 44.18311 | -65.55316 | 35242 ft | 408 kts | 249° |
| 2026-05-05 01:11 | 44.17149 | -65.58923 | 35412 ft | 409 kts | 249° |
| 2026-05-05 01:11 | 44.15986 | -65.62537 | 35597 ft | 409 kts | 249° |
| 2026-05-05 01:12 | 44.14821 | -65.66150 | 35777 ft | 409 kts | 249° |
| 2026-05-05 01:12 | 44.13651 | -65.69774 | 35883 ft | 411 kts | 249° |
| 2026-05-05 01:12 | 44.11301 | -65.77057 | 35888 ft | 413 kts | 249° |
| 2026-05-05 01:13 | 44.08946 | -65.84333 | 35900 ft | 413 kts | 249° |
| 2026-05-05 01:13 | 44.06587 | -65.91613 | 35905 ft | 413 kts | 249° |
| 2026-05-05 01:14 | 44.04225 | -65.98894 | 35907 ft | 413 kts | 249° |
| 2026-05-05 01:14 | 44.01851 | -66.06162 | 35915 ft | 413 kts | 249° |
| 2026-05-05 01:15 | 43.99467 | -66.13433 | 35907 ft | 414 kts | 250° |
| 2026-05-05 01:15 | 43.97076 | -66.20712 | 35910 ft | 414 kts | 250° |
| 2026-05-05 01:16 | 43.94680 | -66.27981 | 35910 ft | 414 kts | 249° |
| 2026-05-05 01:16 | 43.92277 | -66.35249 | 35910 ft | 414 kts | 249° |
| 2026-05-05 01:17 | 43.89877 | -66.42506 | 35911 ft | 414 kts | 250° |
| 2026-05-05 01:17 | 43.87490 | -66.49711 | 35883 ft | 414 kts | 250° |
| 2026-05-05 01:18 | 43.85077 | -66.56964 | 35893 ft | 414 kts | 250° |
| 2026-05-05 01:18 | 43.82658 | -66.64209 | 35896 ft | 415 kts | 250° |
| 2026-05-05 01:19 | 43.80212 | -66.71508 | 35899 ft | 416 kts | 250° |
| 2026-05-05 01:19 | 43.77778 | -66.78777 | 35902 ft | 416 kts | 250° |
| 2026-05-05 01:20 | 43.75350 | -66.85991 | 35891 ft | 417 kts | 250° |
| 2026-05-05 01:20 | 43.72897 | -66.93262 | 35904 ft | 418 kts | 250° |
| 2026-05-05 01:21 | 43.71012 | -67.00756 | 35911 ft | 409 kts | 264° |
| 2026-05-05 01:21 | 43.70785 | -67.08525 | 35903 ft | 404 kts | 274° |
| 2026-05-05 01:22 | 43.70934 | -67.16287 | 35904 ft | 404 kts | 274° |
| 2026-05-05 01:22 | 43.71065 | -67.24052 | 35905 ft | 404 kts | 274° |
| 2026-05-05 01:23 | 43.71205 | -67.31830 | 35905 ft | 405 kts | 274° |
| 2026-05-05 01:23 | 43.71334 | -67.39611 | 35913 ft | 405 kts | 274° |
| 2026-05-05 01:24 | 43.71459 | -67.47403 | 35918 ft | 405 kts | 274° |
| 2026-05-05 01:24 | 43.71583 | -67.55186 | 35917 ft | 405 kts | 274° |
| 2026-05-05 01:25 | 43.71685 | -67.62985 | 35898 ft | 406 kts | 274° |
| 2026-05-05 01:25 | 43.71795 | -67.70781 | 35898 ft | 406 kts | 274° |
| 2026-05-05 01:26 | 43.71900 | -67.78592 | 35906 ft | 407 kts | 274° |
| 2026-05-05 01:26 | 43.71999 | -67.86405 | 35906 ft | 407 kts | 274° |
| 2026-05-05 01:27 | 43.72079 | -67.94225 | 35908 ft | 407 kts | 274° |
| 2026-05-05 01:27 | 43.72165 | -68.02044 | 35910 ft | 407 kts | 274° |
| 2026-05-05 01:28 | 43.72255 | -68.09858 | 35910 ft | 406 kts | 274° |
| 2026-05-05 01:28 | 43.72336 | -68.17666 | 35905 ft | 406 kts | 274° |
| 2026-05-05 01:29 | 43.72410 | -68.25480 | 35905 ft | 406 kts | 274° |
| 2026-05-05 01:29 | 43.72476 | -68.33285 | 35902 ft | 406 kts | 274° |
| 2026-05-05 01:30 | 43.72536 | -68.41089 | 35901 ft | 406 kts | 274° |
| 2026-05-05 01:30 | 43.72590 | -68.48891 | 35898 ft | 406 kts | 274° |
| 2026-05-05 01:31 | 43.72636 | -68.56636 | 35891 ft | 405 kts | 274° |
| 2026-05-05 01:31 | 43.72680 | -68.64427 | 35872 ft | 406 kts | 274° |
| 2026-05-05 01:32 | 43.72715 | -68.72225 | 35870 ft | 406 kts | 274° |
| 2026-05-05 01:32 | 43.72744 | -68.80028 | 35870 ft | 406 kts | 274° |
| 2026-05-05 01:33 | 43.72780 | -68.87833 | 35876 ft | 406 kts | 274° |
| 2026-05-05 01:33 | 43.72810 | -68.95634 | 35871 ft | 406 kts | 274° |
| 2026-05-05 01:34 | 43.72831 | -69.03442 | 35871 ft | 406 kts | 274° |
| 2026-05-05 01:34 | 43.72843 | -69.11256 | 35852 ft | 406 kts | 274° |
| 2026-05-05 01:35 | 43.72848 | -69.19067 | 35856 ft | 407 kts | 274° |
| 2026-05-05 01:35 | 43.72847 | -69.26884 | 35852 ft | 407 kts | 274° |
| 2026-05-05 01:36 | 43.72841 | -69.34713 | 35861 ft | 407 kts | 274° |
| 2026-05-05 01:36 | 43.72827 | -69.42534 | 35849 ft | 408 kts | 271° |
| 2026-05-05 01:37 | 43.72365 | -69.46397 | 35859 ft | 416 kts | 257° |
| 2026-05-05 01:37 | 43.71429 | -69.50216 | 35857 ft | 417 kts | 256° |
| 2026-05-05 01:37 | 43.69503 | -69.57797 | 35842 ft | 418 kts | 256° |
| 2026-05-05 01:38 | 43.67559 | -69.65370 | 35846 ft | 418 kts | 256° |
| 2026-05-05 01:38 | 43.65623 | -69.72942 | 35854 ft | 418 kts | 256° |
| 2026-05-05 01:39 | 43.63682 | -69.80522 | 35851 ft | 418 kts | 256° |
| 2026-05-05 01:39 | 43.61738 | -69.88090 | 35853 ft | 419 kts | 256° |
| 2026-05-05 01:40 | 43.59786 | -69.95658 | 35828 ft | 419 kts | 255° |
| 2026-05-05 01:40 | 43.57824 | -70.03222 | 35824 ft | 419 kts | 255° |
| 2026-05-05 01:41 | 43.55857 | -70.10780 | 35827 ft | 419 kts | 255° |
| 2026-05-05 01:41 | 43.53885 | -70.18332 | 35820 ft | 419 kts | 255° |
| 2026-05-05 01:42 | 43.51924 | -70.25839 | 35829 ft | 419 kts | 255° |
| 2026-05-05 01:42 | 43.49953 | -70.33390 | 35831 ft | 419 kts | 255° |
| 2026-05-05 01:43 | 43.47974 | -70.40934 | 35817 ft | 419 kts | 255° |
| 2026-05-05 01:43 | 43.45978 | -70.48477 | 35832 ft | 419 kts | 255° |
| 2026-05-05 01:44 | 43.43978 | -70.56024 | 35846 ft | 420 kts | 255° |
| 2026-05-05 01:44 | 43.42013 | -70.63575 | 35856 ft | 418 kts | 257° |
| 2026-05-05 01:45 | 43.40438 | -70.71253 | 35863 ft | 416 kts | 260° |
| 2026-05-05 01:45 | 43.39042 | -70.78984 | 35865 ft | 416 kts | 260° |
| 2026-05-05 01:46 | 43.37583 | -70.86692 | 35856 ft | 417 kts | 259° |
| 2026-05-05 01:46 | 43.36043 | -70.94390 | 35835 ft | 418 kts | 259° |
| 2026-05-05 01:47 | 43.34484 | -71.02082 | 35840 ft | 418 kts | 259° |
| 2026-05-05 01:47 | 43.32924 | -71.09788 | 35847 ft | 419 kts | 259° |
| 2026-05-05 01:48 | 43.31371 | -71.17493 | 35851 ft | 419 kts | 259° |
| 2026-05-05 01:48 | 43.29814 | -71.25208 | 35857 ft | 419 kts | 259° |
| 2026-05-05 01:49 | 43.28254 | -71.32914 | 35867 ft | 419 kts | 258° |
| 2026-05-05 01:49 | 43.26685 | -71.40569 | 35872 ft | 419 kts | 258° |
| 2026-05-05 01:50 | 43.25113 | -71.48224 | 35873 ft | 419 kts | 258° |
| 2026-05-05 01:50 | 43.23784 | -71.54706 | 35873 ft | 419 kts | 258° |
| 2026-05-05 01:51 | 43.21939 | -71.63643 | 35868 ft | 419 kts | 258° |
| 2026-05-05 01:51 | 43.20608 | -71.70076 | 35866 ft | 419 kts | 258° |
| 2026-05-05 01:52 | 43.19012 | -71.77753 | 35860 ft | 419 kts | 258° |
| 2026-05-05 01:52 | 43.17409 | -71.85428 | 35855 ft | 419 kts | 258° |
| 2026-05-05 01:53 | 43.15796 | -71.93101 | 35838 ft | 419 kts | 258° |
| 2026-05-05 01:53 | 43.14189 | -72.00762 | 35845 ft | 419 kts | 258° |
| 2026-05-05 01:54 | 43.12577 | -72.08421 | 35844 ft | 418 kts | 258° |
| 2026-05-05 01:54 | 43.10955 | -72.16065 | 35848 ft | 418 kts | 258° |
| 2026-05-05 01:55 | 43.09331 | -72.23703 | 35863 ft | 418 kts | 258° |
| 2026-05-05 01:55 | 43.07703 | -72.31345 | 35857 ft | 418 kts | 257° |
| 2026-05-05 01:56 | 43.06068 | -72.38975 | 35864 ft | 418 kts | 257° |
| 2026-05-05 01:56 | 43.04425 | -72.46605 | 35845 ft | 418 kts | 257° |
| 2026-05-05 01:57 | 43.03605 | -72.50403 | 35664 ft | 416 kts | 257° |
| 2026-05-05 01:57 | 43.02789 | -72.54194 | 34929 ft | 416 kts | 258° |
| 2026-05-05 01:57 | 43.01969 | -72.57998 | 34152 ft | 418 kts | 258° |
| 2026-05-05 01:57 | 43.01149 | -72.61805 | 33319 ft | 418 kts | 258° |
| 2026-05-05 01:58 | 43.00322 | -72.65623 | 32438 ft | 418 kts | 258° |
| 2026-05-05 01:58 | 42.99493 | -72.69437 | 31534 ft | 420 kts | 257° |
| 2026-05-05 01:58 | 42.98659 | -72.73267 | 30582 ft | 422 kts | 257° |
| 2026-05-05 01:58 | 42.97820 | -72.77116 | 29584 ft | 425 kts | 257° |
| 2026-05-05 01:59 | 42.96972 | -72.80984 | 28618 ft | 423 kts | 256° |
| 2026-05-05 01:59 | 42.96134 | -72.84808 | 27860 ft | 418 kts | 256° |
| 2026-05-05 01:59 | 42.95302 | -72.88585 | 27160 ft | 413 kts | 256° |
| 2026-05-05 01:59 | 42.94489 | -72.92275 | 26461 ft | 409 kts | 256° |
| 2026-05-05 02:00 | 42.93676 | -72.95963 | 25800 ft | 404 kts | 256° |
| 2026-05-05 02:00 | 42.92867 | -72.99617 | 25167 ft | 400 kts | 256° |
| 2026-05-05 02:00 | 42.92069 | -73.03227 | 24545 ft | 396 kts | 256° |
| 2026-05-05 02:00 | 42.91280 | -73.06789 | 24029 ft | 392 kts | 256° |
| 2026-05-05 02:01 | 42.90486 | -73.10372 | 23843 ft | 393 kts | 256° |
| 2026-05-05 02:01 | 42.89701 | -73.13931 | 23850 ft | 393 kts | 256° |
| 2026-05-05 02:01 | 42.88911 | -73.17505 | 23870 ft | 394 kts | 256° |
| 2026-05-05 02:01 | 42.88118 | -73.21075 | 23863 ft | 393 kts | 256° |
| 2026-05-05 02:02 | 42.87322 | -73.24643 | 23860 ft | 393 kts | 255° |
| 2026-05-05 02:02 | 42.86525 | -73.28208 | 23860 ft | 393 kts | 255° |
| 2026-05-05 02:02 | 42.85735 | -73.31744 | 23862 ft | 393 kts | 256° |
| 2026-05-05 02:02 | 42.84932 | -73.35337 | 23857 ft | 392 kts | 255° |
| 2026-05-05 02:03 | 42.84133 | -73.38891 | 23853 ft | 392 kts | 255° |
| 2026-05-05 02:03 | 42.83329 | -73.42441 | 23851 ft | 392 kts | 255° |
| 2026-05-05 02:03 | 42.82529 | -73.45987 | 23847 ft | 392 kts | 255° |
| 2026-05-05 02:03 | 42.81729 | -73.49542 | 23822 ft | 393 kts | 255° |
| 2026-05-05 02:04 | 42.80929 | -73.53101 | 23836 ft | 393 kts | 255° |
| 2026-05-05 02:04 | 42.80126 | -73.56660 | 23839 ft | 393 kts | 255° |
| 2026-05-05 02:04 | 42.79320 | -73.60217 | 23843 ft | 393 kts | 255° |
| 2026-05-05 02:04 | 42.78508 | -73.63771 | 23845 ft | 394 kts | 255° |
| 2026-05-05 02:05 | 42.77695 | -73.67327 | 23846 ft | 393 kts | 255° |
| 2026-05-05 02:05 | 42.76627 | -73.70763 | 23847 ft | 397 kts | 244° |
| 2026-05-05 02:05 | 42.75054 | -73.73870 | 23848 ft | 402 kts | 233° |
| 2026-05-05 02:05 | 42.73023 | -73.76512 | 23848 ft | 408 kts | 222° |
| 2026-05-05 02:06 | 42.70632 | -73.78556 | 23847 ft | 415 kts | 211° |
| 2026-05-05 02:06 | 42.67898 | -73.79928 | 23848 ft | 423 kts | 199° |
| 2026-05-05 02:06 | 42.64961 | -73.80497 | 23843 ft | 431 kts | 187° |
| 2026-05-05 02:06 | 42.61986 | -73.80553 | 23547 ft | 428 kts | 185° |
| 2026-05-05 02:07 | 42.58998 | -73.80595 | 22864 ft | 425 kts | 185° |
| 2026-05-05 02:07 | 42.56057 | -73.80638 | 22221 ft | 421 kts | 186° |
| 2026-05-05 02:07 | 42.53167 | -73.80686 | 21639 ft | 416 kts | 186° |
| 2026-05-05 02:07 | 42.50260 | -73.80737 | 21062 ft | 412 kts | 186° |
| 2026-05-05 02:08 | 42.47411 | -73.80790 | 20491 ft | 408 kts | 186° |
| 2026-05-05 02:08 | 42.44607 | -73.80843 | 19972 ft | 404 kts | 186° |
| 2026-05-05 02:08 | 42.41791 | -73.80898 | 19454 ft | 400 kts | 186° |
| 2026-05-05 02:08 | 42.39016 | -73.80950 | 18955 ft | 397 kts | 186° |
| 2026-05-05 02:09 | 42.36267 | -73.80998 | 18445 ft | 394 kts | 186° |
| 2026-05-05 02:09 | 42.33537 | -73.81044 | 17900 ft | 391 kts | 186° |
| 2026-05-05 02:09 | 42.30827 | -73.81091 | 17340 ft | 388 kts | 186° |
| 2026-05-05 02:09 | 42.28136 | -73.81135 | 16912 ft | 386 kts | 186° |
| 2026-05-05 02:10 | 42.25450 | -73.81182 | 16818 ft | 386 kts | 186° |
| 2026-05-05 02:10 | 42.22762 | -73.81232 | 16840 ft | 387 kts | 186° |
| 2026-05-05 02:10 | 42.20070 | -73.81283 | 16842 ft | 387 kts | 186° |
| 2026-05-05 02:10 | 42.17372 | -73.81333 | 16842 ft | 387 kts | 186° |
| 2026-05-05 02:11 | 42.14678 | -73.81382 | 16847 ft | 388 kts | 186° |
| 2026-05-05 02:11 | 42.11983 | -73.81435 | 16844 ft | 388 kts | 186° |
| 2026-05-05 02:11 | 42.09285 | -73.81486 | 16845 ft | 388 kts | 186° |
| 2026-05-05 02:11 | 42.06587 | -73.81535 | 16833 ft | 388 kts | 186° |
| 2026-05-05 02:12 | 42.03894 | -73.81583 | 16845 ft | 388 kts | 185° |
| 2026-05-05 02:12 | 41.98496 | -73.81674 | 16845 ft | 388 kts | 185° |
| 2026-05-05 02:12 | 41.95803 | -73.81720 | 16850 ft | 387 kts | 185° |
| 2026-05-05 02:13 | 41.93108 | -73.81767 | 16860 ft | 387 kts | 185° |
| 2026-05-05 02:13 | 41.90410 | -73.81811 | 16865 ft | 388 kts | 184° |
| 2026-05-05 02:13 | 41.87706 | -73.81516 | 16872 ft | 393 kts | 175° |
| 2026-05-05 02:13 | 41.85034 | -73.80659 | 16868 ft | 397 kts | 167° |
| 2026-05-05 02:14 | 41.82419 | -73.79603 | 16877 ft | 398 kts | 167° |
| 2026-05-05 02:14 | 41.79735 | -73.78530 | 16885 ft | 398 kts | 168° |
| 2026-05-05 02:14 | 41.77079 | -73.77479 | 16890 ft | 397 kts | 168° |
| 2026-05-05 02:14 | 41.74464 | -73.76447 | 16894 ft | 397 kts | 168° |
| 2026-05-05 02:15 | 41.71818 | -73.75399 | 16893 ft | 397 kts | 168° |
| 2026-05-05 02:15 | 41.69160 | -73.74343 | 16899 ft | 397 kts | 168° |
| 2026-05-05 02:15 | 41.66511 | -73.73287 | 16898 ft | 397 kts | 167° |
| 2026-05-05 02:15 | 41.63861 | -73.72234 | 16899 ft | 397 kts | 168° |
| 2026-05-05 02:16 | 41.61208 | -73.71187 | 16898 ft | 397 kts | 168° |
| 2026-05-05 02:16 | 41.58558 | -73.70140 | 16896 ft | 397 kts | 168° |
| 2026-05-05 02:16 | 41.55907 | -73.69093 | 16895 ft | 397 kts | 168° |
| 2026-05-05 02:16 | 41.53256 | -73.68048 | 16895 ft | 397 kts | 168° |
| 2026-05-05 02:17 | 41.50601 | -73.67003 | 16895 ft | 397 kts | 168° |
| 2026-05-05 02:17 | 41.47961 | -73.65964 | 16592 ft | 393 kts | 168° |
| 2026-05-05 02:17 | 41.45343 | -73.64933 | 16033 ft | 391 kts | 168° |
| 2026-05-05 02:17 | 41.42743 | -73.63910 | 15486 ft | 389 kts | 168° |
| 2026-05-05 02:18 | 41.40179 | -73.62903 | 14757 ft | 380 kts | 168° |
| 2026-05-05 02:18 | 41.37655 | -73.61914 | 13802 ft | 377 kts | 168° |
| 2026-05-05 02:18 | 41.35158 | -73.60935 | 12842 ft | 371 kts | 168° |
| 2026-05-05 02:18 | 41.32769 | -73.59990 | 12671 ft | 344 kts | 168° |
| 2026-05-05 02:19 | 41.30565 | -73.59109 | 12502 ft | 320 kts | 168° |
| 2026-05-05 02:19 | 41.28471 | -73.58278 | 12032 ft | 310 kts | 167° |
| 2026-05-05 02:19 | 41.26466 | -73.57234 | 11418 ft | 308 kts | 161° |
| 2026-05-05 02:19 | 41.24508 | -73.56120 | 10802 ft | 305 kts | 160° |
| 2026-05-05 02:20 | 41.22570 | -73.55015 | 10190 ft | 301 kts | 161° |
| 2026-05-05 02:20 | 41.20586 | -73.54281 | 9549 ft | 292 kts | 177° |
| 2026-05-05 02:20 | 41.18596 | -73.54351 | 8896 ft | 282 kts | 194° |
| 2026-05-05 02:20 | 41.16766 | -73.55136 | 8243 ft | 273 kts | 211° |
| 2026-05-05 02:21 | 41.15157 | -73.56417 | 7589 ft | 268 kts | 216° |
| 2026-05-05 02:21 | 41.13593 | -73.57723 | 6957 ft | 264 kts | 216° |
| 2026-05-05 02:21 | 41.12046 | -73.59007 | 6332 ft | 260 kts | 216° |
| 2026-05-05 02:21 | 41.10531 | -73.60263 | 5684 ft | 255 kts | 216° |
| 2026-05-05 02:22 | 41.09038 | -73.61502 | 5059 ft | 250 kts | 215° |
| 2026-05-05 02:22 | 41.07580 | -73.62714 | 4437 ft | 245 kts | 214° |
| 2026-05-05 02:22 | 41.06158 | -73.63910 | 4018 ft | 240 kts | 214° |
| 2026-05-05 02:22 | 41.04749 | -73.65110 | 3942 ft | 241 kts | 214° |
| 2026-05-05 02:23 | 41.03406 | -73.66253 | 3944 ft | 216 kts | 214° |
| 2026-05-05 02:23 | 41.02215 | -73.67263 | 3934 ft | 190 kts | 215° |
| 2026-05-05 02:23 | 41.01149 | -73.68167 | 3752 ft | 176 kts | 215° |
| 2026-05-05 02:23 | 41.00138 | -73.69026 | 3405 ft | 171 kts | 214° |
| 2026-05-05 02:24 | 40.99141 | -73.69869 | 3154 ft | 170 kts | 214° |
| 2026-05-05 02:24 | 40.98051 | -73.70792 | 3103 ft | 199 kts | 214° |
| 2026-05-05 02:24 | 40.96858 | -73.71810 | 2739 ft | 204 kts | 214° |
| 2026-05-05 02:24 | 40.95693 | -73.72801 | 2612 ft | 195 kts | 214° |
| 2026-05-05 02:25 | 40.94578 | -73.73747 | 2484 ft | 186 kts | 213° |
| 2026-05-05 02:25 | 40.93516 | -73.74647 | 2355 ft | 178 kts | 213° |
| 2026-05-05 02:25 | 40.92482 | -73.75512 | 2152 ft | 178 kts | 213° |
| 2026-05-05 02:25 | 40.91439 | -73.76379 | 1757 ft | 185 kts | 212° |
| 2026-05-05 02:26 | 40.90322 | -73.77306 | 1344 ft | 190 kts | 212° |
| 2026-05-05 02:26 | 40.89190 | -73.78246 | 1068 ft | 189 kts | 212° |
| 2026-05-05 02:26 | 40.88105 | -73.79145 | 1036 ft | 181 kts | 211° |
| 2026-05-05 02:26 | 40.87049 | -73.80020 | 1019 ft | 177 kts | 211° |
| 2026-05-05 02:27 | 40.86032 | -73.80864 | 1027 ft | 175 kts | 212° |
| 2026-05-05 02:27 | 40.85004 | -73.81716 | 1030 ft | 176 kts | 212° |
| 2026-05-05 02:27 | 40.83970 | -73.82574 | 1021 ft | 172 kts | 211° |
| 2026-05-05 02:27 | 40.82987 | -73.83387 | 967 ft | 159 kts | 212° |
| 2026-05-05 02:28 | 40.82069 | -73.84148 | 814 ft | 158 kts | 210° |
| 2026-05-05 02:28 | 40.81143 | -73.84914 | 646 ft | 158 kts | 211° |
| 2026-05-05 02:28 | 40.80183 | -73.85709 | 447 ft | 163 kts | 212° |
| 2026-05-05 02:28 | 40.79228 | -73.86499 | 233 ft | 163 kts | 211° |
| 2026-05-05 02:29 | 40.78276 | -73.87292 | 46 ft | 159 kts | 211° |
| 2026-05-05 02:29 | 40.77490 | -73.87939 | 24 ft | 77 kts | 212° |
| 2026-05-05 02:29 | 40.77228 | -73.88159 | 22 ft | 31 kts | 211° |
| 2026-05-05 02:29 | 40.77104 | -73.88243 | 25 ft | 14 kts | 180° |
| 2026-05-05 02:30 | 40.77051 | -73.88189 | 24 ft | 10 kts | 118° |
| 2026-05-05 02:30 | 40.77064 | -73.88142 | 25 ft | 0 kts | 36° |
| 2026-05-05 02:30 | 40.77069 | -73.88137 | 23 ft | 6 kts | 35° |
| 2026-05-05 02:31 | 40.77174 | -73.88051 | 21 ft | 24 kts | 33° |
| 2026-05-05 02:31 | 40.77281 | -73.87961 | 21 ft | 15 kts | 32° |
| 2026-05-05 02:31 | 40.77369 | -73.87889 | 22 ft | 14 kts | 32° |
| 2026-05-05 02:31 | 40.77450 | -73.87823 | 21 ft | 13 kts | 32° |
| 2026-05-05 02:32 | 40.77522 | -73.87764 | 21 ft | 12 kts | 32° |
| 2026-05-05 02:32 | 40.77584 | -73.87712 | 23 ft | 10 kts | 33° |
| 2026-05-05 02:32 | 40.77604 | -73.87637 | 21 ft | 9 kts | 98° |
| 2026-05-05 02:32 | 40.77599 | -73.87618 | 22 ft | 1 kts | 115° |
| 2026-05-05 02:33 | 40.77590 | -73.87604 | 21 ft | 6 kts | 132° |
| 2026-05-05 02:33 | 40.77580 | -73.87529 | 21 ft | 15 kts | 43° |
| 2026-05-05 02:33 | 40.77595 | -73.87499 | 20 ft | 5 kts | 91° |
| 2026-05-05 02:33 | 40.77581 | -73.87445 | 21 ft | 6 kts | 110° |
| 2026-05-05 02:34 | 40.77579 | -73.87436 | 21 ft | 0 kts | 108° |